CDT,Max TemperatureF,Mean TemperatureF,Min TemperatureF,Max Dew PointF,MeanDew PointF,Min DewpointF,Max Humidity, Mean Humidity, Min Humidity, Max Sea Level PressureIn, Mean Sea Level PressureIn, Min Sea Level PressureIn, Max VisibilityMiles, Mean VisibilityMiles, Min VisibilityMiles, Max Wind SpeedMPH, Mean Wind SpeedMPH, Max Gust SpeedMPH,PrecipitationIn, CloudCover, Events, WindDirDegrees
2013-9-1,98,84,71,72,68,60,94,73,29,29.94,29.89,29.80,10,6,1,13,5,,0.00,0,,167
2013-9-2,99,86,73,73,68,60,94,64,27,29.97,29.91,29.81,10,9,2,16,5,,0.00,0,,171
2013-9-3,99,84,70,69,64,58,83,53,26,30.01,29.94,29.86,10,10,10,12,4,,0.00,0,,180
2013-9-4,97,86,75,70,67,64,80,54,33,30.05,29.99,29.94,10,10,10,25,6,29,0.00,3,Rain-Thunderstorm,193
2013-9-5,97,84,71,72,67,62,85,67,32,30.10,30.05,29.99,10,10,10,10,3,17,0.00,0,,59
2013-9-6,95,83,72,72,70,63,94,74,35,30.10,30.04,29.94,10,8,5,13,3,,0.00,1,,197
2013-9-7,96,84,74,72,69,66,89,70,38,30.05,29.99,29.90,10,10,8,20,4,25,0.00,3,,96
2013-9-8,88,80,71,75,71,68,95,82,53,29.99,29.96,29.88,10,8,0,16,5,21,0.42,4,Rain-Thunderstorm,97
2013-9-9,91,81,71,72,70,64,94,81,41,30.00,29.96,29.91,10,10,3,22,6,32,0.09,3,Rain-Thunderstorm,89
2013-9-10,90,80,71,73,71,68,94,84,49,30.07,30.02,29.97,10,10,4,21,7,30,0.01,5,Rain-Thunderstorm,99
2013-9-11,93,82,71,75,71,58,94,82,31,30.11,30.05,29.98,10,9,4,21,6,21,0.01,4,Rain,85
2013-9-12,94,82,71,73,68,57,94,70,29,30.08,30.01,29.90,10,10,8,13,5,,0.00,3,,67
2013-9-13,96,83,71,69,62,54,89,53,25,29.96,29.90,29.81,10,10,10,15,7,22,0.00,0,,111
2013-9-14,95,82,69,72,67,61,89,67,32,29.94,29.90,29.82,10,9,2,18,6,26,0.11,2,Rain,125
2013-9-15,93,82,71,73,70,66,94,75,41,30.01,29.95,29.91,10,10,9,15,5,22,0.00,1,,60
2013-9-16,88,80,72,74,71,68,94,85,59,30.05,30.01,29.95,10,9,1,25,7,32,0.24,4,Rain-Thunderstorm,55
2013-9-17,89,80,72,75,71,66,94,82,55,30.07,30.00,29.94,10,9,2,26,7,37,0.08,4,Rain-Thunderstorm,81
2013-9-18,91,81,72,74,71,68,95,82,48,30.03,29.96,29.88,10,10,6,15,5,23,0.02,4,Rain-Thunderstorm,99
2013-9-19,90,82,74,75,73,71,94,82,53,29.96,29.91,29.81,10,9,1,18,5,29,0.06,5,Rain,97
2013-9-20,81,76,71,75,73,67,100,91,79,29.88,29.81,29.76,10,8,1,18,6,24,0.32,6,Rain-Thunderstorm,101
2013-9-21,85,75,61,67,62,48,84,68,31,29.93,29.87,29.81,10,10,9,17,12,23,0.00,3,,14
2013-9-22,85,71,58,53,49,42,77,50,22,29.91,29.84,29.78,10,10,8,10,7,16,0.00,0,,28
2013-9-23,88,72,55,56,51,45,82,54,23,29.84,29.80,29.75,10,10,9,6,5,,0.00,0,,359
2013-9-24,94,78,62,63,58,54,82,54,26,29.93,29.86,29.82,10,10,9,8,5,,0.00,0,,8
2013-9-25,93,80,66,63,59,54,79,52,29,29.90,29.84,29.78,10,10,10,9,6,,0.00,0,,151
2013-9-26,91,78,68,72,67,55,94,76,39,29.91,29.86,29.80,10,8,0,14,6,18,0.00,3,Fog,202
2013-9-27,89,81,73,76,73,71,94,82,57,29.93,29.88,29.82,10,9,4,20,8,25,0.07,5,Rain-Thunderstorm,144
2013-9-28,90,82,74,76,74,72,94,85,57,29.98,29.91,29.86,10,9,4,18,10,25,0.08,3,Rain-Thunderstorm,156
2013-9-29,77,72,66,73,68,64,94,87,68,30.05,29.99,29.93,10,7,0,21,6,29,1.27,6,Fog-Rain-Thunderstorm,19
2013-9-30,87,74,61,65,60,54,94,71,32,29.94,29.88,29.80,10,9,3,9,4,,0.00,0,,6